createdAt,value
2022-10-20T00:02:06.135Z,8.00
2022-10-20T00:04:32.618Z,10.70
2022-10-20T00:06:58.978Z,12.50
2022-10-20T00:09:25.347Z,9.70
2022-10-20T00:11:51.721Z,12.65
2022-10-20T00:14:18.083Z,12.07
2022-10-20T00:16:44.454Z,22.27
2022-10-20T00:19:11.876Z,10.80
2022-10-20T00:21:38.232Z,10.57
2022-10-20T00:24:04.653Z,11.93
2022-10-20T00:26:31.815Z,12.52
2022-10-20T00:28:58.553Z,11.82
2022-10-20T00:31:25.531Z,8.93
2022-10-20T00:33:52.211Z,15.13
2022-10-20T00:36:20.663Z,11.73
2022-10-20T00:38:47.174Z,11.50
2022-10-20T00:41:15.507Z,9.05
2022-10-20T00:43:52.408Z,10.20
2022-10-20T00:46:24.487Z,12.70
2022-10-20T00:48:54.188Z,11.27
2022-10-20T00:51:23.688Z,10.80
2022-10-20T00:53:51.767Z,9.55
2022-10-20T00:56:18.169Z,9.57
2022-10-20T00:58:44.707Z,9.25
2022-10-20T01:01:11.581Z,10.65
2022-10-20T01:03:48.249Z,15.18
2022-10-20T01:08:50.107Z,11.77
2022-10-20T01:11:28.543Z,11.80
2022-10-20T01:14:18.267Z,9.38
2022-10-20T01:17:04.223Z,9.75
2022-10-20T01:19:55.601Z,11.50
2022-10-20T01:22:43.484Z,10.35
2022-10-20T01:25:15.732Z,9.60
2022-10-20T01:30:12.393Z,10.95
2022-10-20T01:33:06.880Z,13.93
2022-10-20T01:35:45.077Z,8.63
2022-10-20T01:38:26.416Z,11.20
2022-10-20T01:41:25.504Z,13.23
2022-10-20T01:43:52.576Z,8.80
2022-10-20T01:46:21.824Z,16.95
2022-10-20T01:48:48.545Z,8.38
2022-10-20T01:51:14.936Z,12.05
2022-10-20T01:53:41.495Z,12.70
2022-10-20T01:56:16.599Z,9.80
2022-10-20T01:59:07.048Z,11.55
2022-10-20T02:01:52.718Z,12.77
2022-10-20T02:04:26.523Z,10.88
2022-10-20T02:06:57.583Z,11.65
2022-10-20T02:09:31.781Z,14.98
2022-10-20T02:12:02.412Z,9.60
2022-10-20T02:14:29.705Z,13.30
2022-10-20T02:17:02.809Z,8.90
2022-10-20T02:19:32.216Z,12.90
2022-10-20T02:21:58.634Z,10.23
2022-10-20T02:24:27.969Z,12.48
2022-10-20T02:26:55.820Z,8.55
2022-10-20T02:29:25.959Z,11.18
2022-10-20T02:31:52.337Z,13.52
2022-10-20T02:34:18.679Z,12.40
2022-10-20T02:36:45.391Z,12.55
2022-10-20T02:39:12.293Z,16.65
2022-10-20T02:41:38.725Z,16.23
2022-10-20T02:44:05.321Z,14.93
2022-10-20T02:46:31.725Z,15.43
2022-10-20T02:48:58.109Z,10.45
2022-10-20T02:51:24.530Z,11.85
2022-10-20T02:53:51.017Z,12.70
2022-10-20T02:56:17.408Z,12.02
2022-10-20T02:58:43.881Z,11.48
2022-10-20T03:01:10.382Z,14.43
2022-10-20T03:03:36.811Z,15.35
2022-10-20T03:06:15.148Z,13.15
2022-10-20T03:08:41.924Z,11.20
2022-10-20T03:11:08.590Z,11.48
2022-10-20T03:13:34.985Z,14.13
2022-10-20T03:16:02.019Z,14.60
2022-10-20T03:18:28.387Z,12.82
2022-10-20T03:20:54.894Z,12.43
2022-10-20T03:23:21.493Z,20.40
2022-10-20T03:25:48.352Z,16.95
2022-10-20T03:28:14.760Z,17.13
2022-10-20T03:30:41.112Z,19.73
2022-10-20T03:33:07.517Z,12.43
2022-10-20T03:35:33.879Z,11.82
2022-10-20T03:38:00.291Z,16.70
2022-10-20T03:40:26.707Z,15.07
2022-10-20T03:42:53.064Z,13.73
2022-10-20T03:45:19.421Z,14.60
2022-10-20T03:47:45.859Z,17.55
2022-10-20T03:50:12.608Z,15.85
2022-10-20T03:52:39.253Z,11.63
2022-10-20T03:55:05.985Z,15.13
2022-10-20T03:57:32.373Z,15.38
2022-10-20T03:59:58.757Z,12.77
2022-10-20T04:02:37.664Z,20.17
2022-10-20T04:05:05.239Z,19.15
2022-10-20T04:07:31.868Z,17.23
2022-10-20T04:09:58.372Z,18.10
2022-10-20T04:12:24.913Z,21.63
2022-10-20T04:14:51.581Z,13.70
2022-10-20T04:17:18.357Z,17.33
2022-10-20T04:19:44.931Z,15.25
2022-10-20T04:22:11.292Z,18.55
2022-10-20T04:24:37.639Z,15.88
2022-10-20T04:27:04.194Z,17.25
2022-10-20T04:29:30.706Z,13.23
2022-10-20T04:31:57.240Z,17.73
2022-10-20T04:34:23.798Z,17.27
2022-10-20T04:36:50.175Z,17.77
2022-10-20T04:39:17.290Z,16.30
2022-10-20T04:41:43.638Z,17.80
2022-10-20T04:44:10.008Z,19.80
2022-10-20T04:46:36.360Z,14.55
2022-10-20T04:49:02.735Z,15.52
2022-10-20T04:51:29.090Z,16.90
2022-10-20T04:53:55.494Z,17.17
2022-10-20T04:56:22.257Z,18.83
2022-10-20T04:58:52.434Z,16.58
2022-10-20T05:01:19.371Z,18.23
2022-10-20T05:03:45.831Z,15.25
2022-10-20T05:06:17.801Z,21.98
2022-10-20T05:08:46.584Z,13.82
2022-10-20T05:11:13.659Z,16.08
2022-10-20T05:13:40.037Z,18.75
2022-10-20T05:16:06.889Z,17.23
2022-10-20T05:18:34.272Z,18.77
2022-10-20T05:21:08.743Z,16.83
2022-10-20T05:23:36.334Z,16.92
2022-10-20T05:26:04.309Z,18.90
2022-10-20T05:28:30.734Z,18.08
2022-10-20T05:31:00.623Z,16.58
2022-10-20T05:33:28.124Z,18.10
2022-10-20T05:35:54.494Z,14.43
2022-10-20T05:38:20.886Z,16.00
2022-10-20T05:40:47.246Z,17.73
2022-10-20T05:43:15.874Z,15.75
2022-10-20T05:45:42.480Z,16.42
2022-10-20T05:48:08.867Z,17.98
2022-10-20T05:50:35.362Z,16.85
2022-10-20T05:53:01.847Z,15.02
2022-10-20T05:55:28.205Z,19.67
2022-10-20T05:57:55.347Z,20.83
2022-10-20T06:00:30.012Z,17.33
2022-10-20T06:02:57.825Z,15.48
2022-10-20T06:05:24.218Z,15.40
2022-10-20T06:07:53.286Z,12.60
2022-10-20T06:10:19.649Z,15.00
2022-10-20T06:12:46.111Z,21.38
2022-10-20T06:15:12.595Z,15.50
2022-10-20T06:17:38.969Z,16.48
2022-10-20T06:20:05.650Z,21.35
2022-10-20T06:22:32.027Z,16.50
2022-10-20T06:24:58.386Z,14.63
2022-10-20T06:27:24.749Z,19.67
2022-10-20T06:29:51.320Z,17.73
2022-10-20T06:32:20.553Z,16.70
2022-10-20T06:34:46.991Z,15.63
2022-10-20T06:37:13.443Z,16.30
2022-10-20T06:39:39.852Z,18.65
2022-10-20T06:42:09.625Z,22.42
2022-10-20T06:44:38.490Z,25.65
2022-10-20T06:47:07.519Z,16.90
2022-10-20T06:49:33.872Z,15.40
2022-10-20T06:52:00.301Z,16.85
2022-10-20T06:54:26.716Z,15.98
2022-10-20T06:56:53.070Z,13.77
2022-10-20T06:59:19.464Z,16.33
2022-10-20T07:01:45.875Z,16.77
2022-10-20T07:04:15.398Z,14.88
2022-10-20T07:06:43.530Z,17.15
2022-10-20T07:09:14.174Z,17.63
2022-10-20T07:11:41.215Z,14.75
2022-10-20T07:14:07.563Z,14.60
2022-10-20T07:16:34.879Z,14.77
2022-10-20T07:19:02.714Z,14.35
2022-10-20T07:21:34.445Z,16.58
2022-10-20T07:24:04.637Z,13.25
2022-10-20T07:26:33.099Z,13.07
2022-10-20T07:29:01.094Z,14.48
2022-10-20T07:31:31.907Z,13.35
2022-10-20T07:34:06.801Z,16.17
2022-10-20T07:36:42.324Z,13.38
2022-10-20T07:39:08.702Z,14.27
2022-10-20T07:41:37.308Z,16.67
2022-10-20T07:44:04.544Z,17.35
2022-10-20T07:46:31.064Z,14.95
2022-10-20T07:49:11.376Z,13.80
2022-10-20T07:51:44.003Z,14.63
2022-10-20T07:54:11.986Z,13.55
2022-10-20T07:56:41.515Z,16.25
2022-10-20T07:59:09.166Z,19.75
2022-10-20T08:01:35.764Z,14.52
2022-10-20T08:04:02.217Z,15.50
2022-10-20T08:06:28.579Z,14.45
2022-10-20T08:08:55.485Z,16.60
2022-10-20T08:11:22.137Z,15.48
2022-10-20T08:13:48.526Z,18.15
2022-10-20T08:16:16.554Z,18.17
2022-10-20T08:18:50.071Z,15.27
2022-10-20T08:21:19.354Z,17.65
2022-10-20T08:23:47.658Z,14.85
2022-10-20T08:26:18.348Z,13.30
2022-10-20T08:28:44.802Z,14.30
2022-10-20T08:31:11.273Z,15.82
2022-10-20T08:33:37.801Z,22.55
2022-10-20T08:36:06.308Z,14.40
2022-10-20T08:38:33.050Z,14.40
2022-10-20T08:41:00.385Z,18.50
2022-10-20T08:43:28.059Z,14.13
2022-10-20T08:45:54.433Z,17.33
2022-10-20T08:48:23.373Z,16.27
2022-10-20T08:50:51.699Z,13.25
2022-10-20T08:53:19.991Z,13.65
2022-10-20T08:55:46.843Z,15.38
2022-10-20T08:58:19.506Z,14.90
2022-10-20T09:00:46.537Z,16.38
2022-10-20T09:03:18.940Z,17.50
2022-10-20T09:05:47.385Z,21.80
2022-10-20T09:08:13.827Z,14.55
2022-10-20T09:10:45.515Z,13.63
2022-10-20T09:13:17.467Z,13.82
2022-10-20T09:15:43.887Z,16.05
2022-10-20T09:18:12.264Z,13.30
2022-10-20T09:20:44.786Z,13.63
2022-10-20T09:23:35.347Z,19.52
2022-10-20T09:26:01.278Z,16.88
2022-10-20T09:28:34.217Z,14.15
2022-10-20T09:31:32.917Z,12.30
2022-10-20T09:33:59.802Z,13.00
2022-10-20T09:36:34.184Z,15.40
2022-10-20T09:39:01.296Z,12.77
2022-10-20T09:41:32.108Z,12.73
2022-10-20T09:44:02.565Z,14.60
2022-10-20T09:46:32.561Z,17.05
2022-10-20T09:48:59.283Z,13.88
2022-10-20T09:51:30.018Z,15.07
2022-10-20T09:54:05.106Z,14.88
2022-10-20T09:56:38.187Z,11.20
2022-10-20T09:59:07.900Z,12.25
2022-10-20T10:01:34.348Z,12.20
2022-10-20T10:04:01.981Z,15.38
2022-10-20T10:06:43.489Z,15.88
2022-10-20T10:09:42.432Z,13.15
2022-10-20T10:12:11.782Z,12.50
2022-10-20T10:14:48.162Z,13.07
2022-10-20T10:17:32.492Z,11.35
2022-10-20T10:19:59.807Z,13.68
2022-10-20T10:22:26.483Z,13.75
2022-10-20T10:24:54.826Z,14.60
2022-10-20T10:27:32.683Z,14.40
2022-10-20T10:30:24.074Z,14.07
2022-10-20T10:32:50.441Z,14.68
2022-10-20T10:35:24.136Z,13.93
2022-10-20T10:37:50.787Z,17.33
2022-10-20T10:40:19.725Z,12.13
2022-10-20T10:43:00.895Z,15.63
2022-10-20T10:45:42.509Z,11.65
2022-10-20T10:48:35.000Z,14.50
2022-10-20T10:54:00.532Z,10.30
2022-10-20T10:56:32.736Z,13.23
2022-10-20T11:01:34.495Z,11.55
2022-10-20T11:04:31.857Z,14.20
2022-10-20T11:07:20.738Z,11.40
2022-10-20T11:09:55.779Z,12.18
2022-10-20T11:12:42.147Z,10.20
2022-10-20T11:15:14.539Z,13.40
2022-10-20T11:18:05.802Z,9.73
2022-10-20T11:20:53.189Z,10.23
2022-10-20T11:23:37.739Z,13.18
2022-10-20T11:26:07.134Z,10.93
2022-10-20T11:28:44.003Z,9.63
2022-10-20T11:31:39.833Z,14.48
2022-10-20T11:34:11.857Z,13.95
2022-10-20T11:36:41.678Z,12.35
2022-10-20T11:39:25.247Z,9.82
2022-10-20T11:41:54.309Z,12.07
2022-10-20T11:44:40.749Z,11.88
2022-10-20T11:47:12.102Z,11.20
2022-10-20T11:49:40.099Z,15.63
2022-10-20T11:52:44.553Z,13.30
2022-10-20T11:55:33.161Z,13.65
2022-10-20T11:58:20.793Z,14.48
2022-10-20T12:00:59.670Z,11.52
2022-10-20T12:03:51.670Z,14.63
2022-10-20T12:06:25.529Z,15.15
2022-10-20T12:09:10.703Z,10.75
2022-10-20T12:11:58.759Z,11.30
2022-10-20T12:14:49.883Z,17.85
2022-10-20T12:17:19.674Z,14.57
2022-10-20T12:19:50.389Z,14.60
2022-10-20T12:22:16.654Z,11.45
2022-10-20T12:25:02.905Z,13.82
2022-10-20T12:27:29.977Z,15.80
2022-10-20T12:30:37.973Z,16.98
2022-10-20T12:33:21.328Z,13.35
2022-10-20T12:35:59.753Z,17.13
2022-10-20T12:38:26.721Z,14.15
2022-10-20T12:40:57.827Z,12.02
2022-10-20T12:43:33.487Z,14.32
2022-10-20T12:46:11.722Z,11.25
2022-10-20T12:48:43.490Z,13.70
2022-10-20T12:51:20.040Z,13.50
2022-10-20T12:53:52.398Z,10.52
2022-10-20T12:56:20.042Z,17.23
2022-10-20T12:59:24.713Z,16.52
2022-10-20T13:02:09.527Z,16.23
2022-10-20T13:04:58.048Z,12.50
2022-10-20T13:07:45.854Z,14.27
2022-10-20T13:10:28.822Z,14.82
2022-10-20T13:13:00.859Z,15.00
2022-10-20T13:15:42.360Z,15.15
2022-10-20T13:18:11.822Z,19.80
2022-10-20T13:20:45.789Z,18.95
2022-10-20T13:23:14.144Z,17.05
2022-10-20T13:25:44.972Z,19.08
2022-10-20T13:28:18.568Z,24.58
2022-10-20T13:30:54.160Z,19.05
2022-10-20T13:33:38.680Z,16.17
2022-10-20T13:36:42.469Z,17.45
2022-10-20T13:39:26.681Z,30.35
2022-10-20T13:41:59.009Z,21.73
2022-10-20T13:45:02.494Z,20.92
2022-10-20T13:47:39.514Z,19.40
2022-10-20T13:52:49.130Z,16.38
2022-10-20T13:55:22.378Z,20.23
2022-10-20T13:57:57.173Z,20.20
2022-10-20T14:00:31.407Z,19.98
2022-10-20T14:03:01.768Z,22.20
2022-10-20T14:05:31.389Z,21.75
2022-10-20T14:08:03.225Z,21.75
2022-10-20T14:10:47.391Z,19.10
2022-10-20T14:13:17.166Z,20.63
2022-10-20T14:15:50.069Z,23.40
2022-10-20T14:18:24.392Z,26.38
2022-10-20T14:21:03.026Z,20.83
2022-10-20T14:23:35.080Z,21.45
2022-10-20T14:26:03.756Z,23.25
2022-10-20T14:28:33.186Z,21.77
2022-10-20T14:30:59.963Z,22.05
2022-10-20T14:33:26.564Z,20.80
2022-10-20T14:35:55.369Z,26.67
2022-10-20T14:38:29.658Z,22.45
2022-10-20T14:40:57.504Z,18.85
2022-10-20T14:43:24.848Z,26.98
2022-10-20T14:45:56.573Z,23.70
2022-10-20T14:48:23.204Z,23.90
2022-10-20T14:50:49.812Z,20.70
2022-10-20T14:53:22.207Z,16.60
2022-10-20T14:55:48.597Z,21.58
2022-10-20T14:58:58.225Z,20.52
2022-10-20T15:01:31.856Z,19.88
2022-10-20T15:04:10.351Z,20.10
2022-10-20T15:06:36.946Z,22.95
2022-10-20T15:09:03.702Z,20.77
2022-10-20T15:11:32.178Z,21.20
2022-10-20T15:13:59.667Z,19.83
2022-10-20T15:16:35.682Z,19.00
2022-10-20T15:19:23.560Z,18.88
2022-10-20T15:22:01.614Z,13.50
2022-10-20T15:24:28.806Z,13.27
2022-10-20T15:26:56.161Z,12.80
2022-10-20T15:29:22.595Z,16.92
2022-10-20T15:31:49.009Z,18.73
2022-10-20T15:34:15.462Z,17.98
2022-10-20T15:36:42.406Z,19.05
2022-10-20T15:39:09.367Z,19.88
2022-10-20T15:41:36.563Z,20.23
2022-10-20T15:44:23.287Z,15.65
2022-10-20T15:46:53.423Z,19.27
2022-10-20T15:49:19.890Z,19.45
2022-10-20T15:51:47.512Z,20.65
2022-10-20T15:54:19.727Z,20.13
2022-10-20T15:59:12.460Z,25.60
2022-10-20T16:01:38.911Z,23.25
2022-10-20T16:04:23.069Z,18.48
2022-10-20T16:06:52.460Z,21.55
2022-10-20T16:09:23.086Z,21.48
2022-10-20T16:11:49.900Z,22.45
2022-10-20T16:14:16.330Z,19.05
2022-10-20T16:16:44.869Z,16.25
2022-10-20T16:19:11.257Z,17.27
2022-10-20T16:21:37.665Z,17.20
2022-10-20T16:24:04.969Z,22.27
2022-10-20T16:26:31.333Z,15.43
2022-10-20T16:28:57.729Z,18.92
2022-10-20T16:31:24.144Z,18.25
2022-10-20T16:33:50.568Z,18.23
2022-10-20T16:36:17.828Z,16.60
2022-10-20T16:38:44.303Z,19.50
2022-10-20T16:41:13.463Z,17.80
2022-10-20T16:43:41.676Z,16.52
2022-10-20T16:46:08.666Z,20.67
2022-10-20T16:48:37.656Z,15.35
2022-10-20T16:51:09.659Z,17.08
2022-10-20T16:53:36.751Z,21.90
2022-10-20T16:56:03.574Z,21.85
2022-10-20T16:58:29.957Z,20.50
2022-10-20T17:01:04.323Z,18.75
2022-10-20T17:03:31.078Z,17.88
2022-10-20T17:05:59.008Z,25.17
2022-10-20T17:08:25.997Z,17.85
2022-10-20T17:10:57.437Z,19.02
2022-10-20T17:13:24.557Z,20.00
2022-10-20T17:15:51.077Z,22.90
2022-10-20T17:18:17.789Z,15.95
2022-10-20T17:20:44.144Z,17.02
2022-10-20T17:23:10.642Z,22.63
2022-10-20T17:25:37.417Z,20.35
2022-10-20T17:28:04.000Z,17.25
2022-10-20T17:30:30.445Z,16.52
2022-10-20T17:32:56.860Z,19.48
2022-10-20T17:35:23.248Z,20.27
2022-10-20T17:37:49.643Z,20.65
2022-10-20T17:42:47.557Z,19.87
2022-10-20T17:45:14.093Z,18.67
2022-10-20T17:47:40.458Z,20.02
2022-10-20T17:52:38.937Z,17.85
2022-10-20T17:55:06.141Z,14.95
2022-10-20T17:57:32.514Z,19.38
2022-10-20T18:00:01.487Z,21.98
2022-10-20T18:02:29.603Z,20.83
2022-10-20T18:04:55.982Z,23.20
2022-10-20T18:07:22.604Z,22.65
2022-10-20T18:09:49.109Z,24.75
2022-10-20T18:12:16.016Z,19.40
2022-10-20T18:14:42.463Z,17.40
2022-10-20T18:17:08.837Z,20.67
2022-10-20T18:19:35.237Z,22.17
2022-10-20T18:22:01.825Z,23.70
2022-10-20T18:24:28.238Z,19.17
2022-10-20T18:26:54.607Z,19.20
2022-10-20T18:29:21.080Z,28.80
2022-10-20T18:31:47.981Z,23.65
2022-10-20T18:34:17.263Z,20.45
2022-10-20T18:36:45.864Z,19.70
2022-10-20T18:39:13.446Z,16.27
2022-10-20T18:41:40.967Z,19.33
2022-10-20T18:44:11.042Z,22.08
2022-10-20T18:46:37.783Z,20.92
2022-10-20T18:49:05.620Z,20.42
2022-10-20T18:51:32.203Z,16.98
2022-10-20T18:53:59.991Z,19.17
2022-10-20T18:56:28.233Z,20.88
2022-10-20T18:59:00.190Z,17.45
2022-10-20T19:01:32.771Z,18.17
2022-10-20T19:04:00.275Z,17.20
2022-10-20T19:06:29.247Z,19.55
2022-10-20T19:08:58.111Z,14.48
2022-10-20T19:11:27.311Z,14.18
2022-10-20T19:13:53.815Z,14.48
2022-10-20T19:16:23.370Z,14.95
2022-10-20T19:18:52.221Z,16.55
2022-10-20T19:23:53.285Z,14.80
2022-10-20T19:26:31.160Z,14.23
2022-10-20T19:29:09.569Z,17.70
2022-10-20T19:31:44.548Z,15.93
2022-10-20T19:34:14.628Z,14.43
2022-10-20T19:36:41.137Z,16.02
2022-10-20T19:39:09.382Z,13.95
2022-10-20T19:41:36.213Z,20.08
2022-10-20T19:44:03.229Z,12.55
2022-10-20T19:46:29.608Z,14.13
2022-10-20T19:48:57.235Z,11.32
2022-10-20T19:51:23.738Z,15.95
2022-10-20T19:53:50.256Z,15.30
2022-10-20T19:56:17.248Z,15.98
2022-10-20T19:58:46.493Z,14.55
2022-10-20T20:01:13.513Z,14.65
2022-10-20T20:03:39.939Z,13.32
2022-10-20T20:06:10.557Z,12.02
2022-10-20T20:08:37.252Z,13.63
2022-10-20T20:11:05.119Z,13.75
2022-10-20T20:13:31.861Z,17.60
2022-10-20T20:15:58.284Z,12.68
2022-10-20T20:18:24.775Z,11.40
2022-10-20T20:20:51.150Z,13.18
2022-10-20T20:23:22.494Z,15.48
2022-10-20T20:25:52.268Z,12.18
2022-10-20T20:28:19.086Z,14.93
2022-10-20T20:30:45.638Z,14.38
2022-10-20T20:33:12.389Z,10.70
2022-10-20T20:35:38.755Z,11.60
2022-10-20T20:38:05.115Z,12.35
2022-10-20T20:40:31.505Z,13.10
2022-10-20T20:42:57.862Z,11.65
2022-10-20T20:45:24.242Z,11.35
2022-10-20T20:47:50.656Z,9.77
2022-10-20T20:50:17.113Z,9.95
2022-10-20T20:52:43.521Z,10.30
2022-10-20T20:55:09.932Z,12.02
2022-10-20T20:57:36.577Z,14.52
2022-10-20T21:00:03.674Z,12.20
2022-10-20T21:02:30.074Z,10.35
2022-10-20T21:04:56.463Z,12.05
2022-10-20T21:07:22.825Z,12.65
2022-10-20T21:09:49.213Z,13.43
2022-10-20T21:12:15.594Z,12.27
2022-10-20T21:14:41.976Z,13.07
2022-10-20T21:17:08.339Z,10.93
2022-10-20T21:19:35.686Z,11.30
2022-10-20T21:22:02.030Z,9.23
2022-10-20T21:24:28.484Z,10.02
2022-10-20T21:26:54.944Z,11.13
2022-10-20T21:29:21.570Z,9.32
2022-10-20T21:31:47.954Z,9.85
2022-10-20T21:34:14.417Z,11.63
2022-10-20T21:36:40.903Z,11.50
2022-10-20T21:39:11.276Z,11.07
2022-10-20T21:41:38.259Z,9.27
2022-10-20T21:44:05.965Z,12.63
2022-10-20T21:46:41.995Z,13.23
2022-10-20T21:49:11.744Z,8.18
2022-10-20T21:51:43.221Z,13.32
2022-10-20T21:54:12.737Z,14.32
2022-10-20T21:56:41.116Z,14.77
2022-10-20T21:59:08.730Z,16.00
2022-10-20T22:01:35.133Z,12.52
2022-10-20T22:04:01.623Z,13.80
2022-10-20T22:06:28.072Z,14.90
2022-10-20T22:08:57.547Z,13.88
2022-10-20T22:11:36.451Z,16.98
2022-10-20T22:14:03.813Z,14.50
2022-10-20T22:16:33.613Z,15.88
2022-10-20T22:19:03.211Z,18.45
2022-10-20T22:21:30.211Z,16.05
2022-10-20T22:23:57.513Z,16.23
2022-10-20T22:26:26.571Z,16.88
2022-10-20T22:28:53.004Z,16.73
2022-10-20T22:31:19.475Z,15.20
2022-10-20T22:33:45.841Z,17.00
2022-10-20T22:36:12.297Z,15.90
2022-10-20T22:38:38.671Z,20.67
2022-10-20T22:41:05.139Z,17.13
2022-10-20T22:43:31.850Z,18.98
2022-10-20T22:45:58.394Z,18.83
2022-10-20T22:48:25.171Z,15.30
2022-10-20T22:50:51.622Z,14.45
2022-10-20T22:53:18.025Z,17.00
2022-10-20T22:55:44.696Z,17.45
2022-10-20T22:58:11.083Z,14.57
2022-10-20T23:00:41.137Z,17.48
2022-10-20T23:03:07.882Z,17.10
2022-10-20T23:05:34.350Z,14.13
2022-10-20T23:08:00.721Z,12.32
2022-10-20T23:10:27.349Z,13.40
2022-10-20T23:12:53.784Z,16.92
2022-10-20T23:15:20.242Z,14.25
2022-10-20T23:17:46.981Z,11.68
2022-10-20T23:20:13.411Z,13.90
2022-10-20T23:22:39.832Z,11.38
2022-10-20T23:25:06.569Z,14.90
2022-10-20T23:27:34.172Z,11.10
2022-10-20T23:30:00.577Z,12.93
2022-10-20T23:32:27.196Z,13.95
2022-10-20T23:34:53.694Z,13.52
2022-10-20T23:37:21.689Z,12.68
2022-10-20T23:39:48.036Z,11.30
2022-10-20T23:42:14.447Z,11.15
2022-10-20T23:44:40.938Z,12.88
2022-10-20T23:47:07.319Z,17.60
2022-10-20T23:49:33.746Z,13.82
2022-10-20T23:52:00.125Z,16.08
2022-10-20T23:54:26.483Z,14.40
2022-10-20T23:56:52.904Z,19.23
2022-10-20T23:59:19.267Z,18.17
